sensor_id;sensor_type;location;lat;lon;timestamp;P1;durP1;ratioP1;P2;durP2;ratioP2
65533;SDS011;53640;55.838;37.184;2024-03-02T00:00:24;34.22;;;19.17;;
65533;SDS011;53640;55.838;37.184;2024-03-02T00:02:54;32.00;;;18.02;;
65533;SDS011;53640;55.838;37.184;2024-03-02T00:05:21;29.23;;;16.85;;
65533;SDS011;53640;55.838;37.184;2024-03-02T00:07:54;35.28;;;19.23;;
65533;SDS011;53640;55.838;37.184;2024-03-02T00:10:24;34.63;;;19.70;;
65533;SDS011;53640;55.838;37.184;2024-03-02T00:12:55;37.58;;;19.38;;
65533;SDS011;53640;55.838;37.184;2024-03-02T00:15:42;37.45;;;20.63;;
65533;SDS011;53640;55.838;37.184;2024-03-02T00:18:14;36.13;;;20.00;;
65533;SDS011;53640;55.838;37.184;2024-03-02T00:20:44;37.50;;;20.58;;
65533;SDS011;53640;55.838;37.184;2024-03-02T00:23:13;40.17;;;20.15;;
65533;SDS011;53640;55.838;37.184;2024-03-02T00:25:43;36.47;;;19.35;;
65533;SDS011;53640;55.838;37.184;2024-03-02T00:28:16;36.15;;;19.45;;
65533;SDS011;53640;55.838;37.184;2024-03-02T00:33:33;44.05;;;22.50;;
65533;SDS011;53640;55.838;37.184;2024-03-02T00:36:03;47.53;;;24.88;;
65533;SDS011;53640;55.838;37.184;2024-03-02T00:38:30;50.95;;;26.73;;
65533;SDS011;53640;55.838;37.184;2024-03-02T00:41:03;49.25;;;23.08;;
65533;SDS011;53640;55.838;37.184;2024-03-02T00:43:38;44.28;;;24.52;;
65533;SDS011;53640;55.838;37.184;2024-03-02T00:46:09;45.75;;;23.75;;
65533;SDS011;53640;55.838;37.184;2024-03-02T00:48:40;49.65;;;24.42;;
65533;SDS011;53640;55.838;37.184;2024-03-02T00:51:21;39.83;;;23.00;;
65533;SDS011;53640;55.838;37.184;2024-03-02T00:53:50;38.25;;;20.83;;
65533;SDS011;53640;55.838;37.184;2024-03-02T00:56:18;37.17;;;19.40;;
65533;SDS011;53640;55.838;37.184;2024-03-02T00:58:46;43.92;;;21.77;;
65533;SDS011;53640;55.838;37.184;2024-03-02T01:01:12;38.45;;;20.65;;
65533;SDS011;53640;55.838;37.184;2024-03-02T01:03:39;40.03;;;21.30;;
65533;SDS011;53640;55.838;37.184;2024-03-02T01:06:07;41.50;;;23.30;;
65533;SDS011;53640;55.838;37.184;2024-03-02T01:08:37;41.45;;;22.85;;
65533;SDS011;53640;55.838;37.184;2024-03-02T01:11:04;38.60;;;23.00;;
65533;SDS011;53640;55.838;37.184;2024-03-02T01:13:31;41.97;;;23.75;;
65533;SDS011;53640;55.838;37.184;2024-03-02T01:15:57;43.80;;;23.15;;
65533;SDS011;53640;55.838;37.184;2024-03-02T01:18:24;42.03;;;23.85;;
65533;SDS011;53640;55.838;37.184;2024-03-02T01:20:52;39.80;;;21.80;;
65533;SDS011;53640;55.838;37.184;2024-03-02T01:23:21;35.65;;;20.05;;
65533;SDS011;53640;55.838;37.184;2024-03-02T01:25:49;36.50;;;19.92;;
65533;SDS011;53640;55.838;37.184;2024-03-02T01:28:17;41.08;;;21.08;;
65533;SDS011;53640;55.838;37.184;2024-03-02T01:30:47;35.40;;;20.35;;
65533;SDS011;53640;55.838;37.184;2024-03-02T01:33:19;31.70;;;17.75;;
65533;SDS011;53640;55.838;37.184;2024-03-02T01:35:46;33.03;;;18.20;;
65533;SDS011;53640;55.838;37.184;2024-03-02T01:38:12;35.20;;;18.73;;
65533;SDS011;53640;55.838;37.184;2024-03-02T01:40:39;42.60;;;21.13;;
65533;SDS011;53640;55.838;37.184;2024-03-02T01:43:06;45.45;;;22.08;;
65533;SDS011;53640;55.838;37.184;2024-03-02T01:45:33;39.67;;;22.10;;
65533;SDS011;53640;55.838;37.184;2024-03-02T01:48:01;52.72;;;26.95;;
65533;SDS011;53640;55.838;37.184;2024-03-02T01:50:29;51.33;;;27.60;;
65533;SDS011;53640;55.838;37.184;2024-03-02T01:52:58;45.10;;;24.70;;
65533;SDS011;53640;55.838;37.184;2024-03-02T01:55:25;48.15;;;24.90;;
65533;SDS011;53640;55.838;37.184;2024-03-02T01:57:52;42.58;;;23.77;;
65533;SDS011;53640;55.838;37.184;2024-03-02T02:00:21;46.53;;;23.13;;
65533;SDS011;53640;55.838;37.184;2024-03-02T02:02:48;42.80;;;23.05;;
65533;SDS011;53640;55.838;37.184;2024-03-02T02:05:16;39.88;;;21.40;;
65533;SDS011;53640;55.838;37.184;2024-03-02T02:07:44;36.88;;;21.30;;
65533;SDS011;53640;55.838;37.184;2024-03-02T02:10:13;41.33;;;22.48;;
65533;SDS011;53640;55.838;37.184;2024-03-02T02:12:39;45.42;;;24.02;;
65533;SDS011;53640;55.838;37.184;2024-03-02T02:15:25;38.58;;;21.67;;
65533;SDS011;53640;55.838;37.184;2024-03-02T02:17:53;37.13;;;19.63;;
65533;SDS011;53640;55.838;37.184;2024-03-02T02:20:40;30.60;;;17.88;;
65533;SDS011;53640;55.838;37.184;2024-03-02T02:23:06;32.97;;;17.00;;
65533;SDS011;53640;55.838;37.184;2024-03-02T02:25:35;37.88;;;19.42;;
65533;SDS011;53640;55.838;37.184;2024-03-02T02:28:02;40.80;;;21.10;;
65533;SDS011;53640;55.838;37.184;2024-03-02T02:30:29;35.67;;;19.20;;
65533;SDS011;53640;55.838;37.184;2024-03-02T02:32:57;33.88;;;19.02;;
65533;SDS011;53640;55.838;37.184;2024-03-02T02:35:24;37.75;;;21.88;;
65533;SDS011;53640;55.838;37.184;2024-03-02T02:37:50;40.33;;;21.95;;
65533;SDS011;53640;55.838;37.184;2024-03-02T02:40:18;38.03;;;20.65;;
65533;SDS011;53640;55.838;37.184;2024-03-02T02:42:45;34.80;;;20.40;;
65533;SDS011;53640;55.838;37.184;2024-03-02T02:45:12;38.65;;;21.60;;
65533;SDS011;53640;55.838;37.184;2024-03-02T02:47:41;37.33;;;19.80;;
65533;SDS011;53640;55.838;37.184;2024-03-02T02:50:07;40.70;;;20.17;;
65533;SDS011;53640;55.838;37.184;2024-03-02T02:52:34;38.42;;;20.88;;
65533;SDS011;53640;55.838;37.184;2024-03-02T02:55:03;33.60;;;18.88;;
65533;SDS011;53640;55.838;37.184;2024-03-02T02:57:30;34.50;;;18.20;;
65533;SDS011;53640;55.838;37.184;2024-03-02T03:00:08;31.52;;;17.58;;
65533;SDS011;53640;55.838;37.184;2024-03-02T03:02:37;31.88;;;19.00;;
65533;SDS011;53640;55.838;37.184;2024-03-02T03:05:05;34.38;;;19.50;;
65533;SDS011;53640;55.838;37.184;2024-03-02T03:07:32;33.20;;;18.00;;
65533;SDS011;53640;55.838;37.184;2024-03-02T03:10:00;38.22;;;20.10;;
65533;SDS011;53640;55.838;37.184;2024-03-02T03:12:29;48.22;;;24.77;;
65533;SDS011;53640;55.838;37.184;2024-03-02T03:14:59;43.20;;;23.63;;
65533;SDS011;53640;55.838;37.184;2024-03-02T03:17:26;37.83;;;22.20;;
65533;SDS011;53640;55.838;37.184;2024-03-02T03:19:53;35.03;;;19.77;;
65533;SDS011;53640;55.838;37.184;2024-03-02T03:22:20;37.88;;;20.27;;
65533;SDS011;53640;55.838;37.184;2024-03-02T03:24:47;39.05;;;20.92;;
65533;SDS011;53640;55.838;37.184;2024-03-02T03:27:13;40.85;;;21.85;;
65533;SDS011;53640;55.838;37.184;2024-03-02T03:29:40;37.65;;;19.20;;
65533;SDS011;53640;55.838;37.184;2024-03-02T03:32:07;33.33;;;19.88;;
65533;SDS011;53640;55.838;37.184;2024-03-02T03:34:33;58.47;;;26.10;;
65533;SDS011;53640;55.838;37.184;2024-03-02T03:37:00;51.50;;;27.90;;
65533;SDS011;53640;55.838;37.184;2024-03-02T03:39:27;53.05;;;27.15;;
65533;SDS011;53640;55.838;37.184;2024-03-02T03:41:55;64.57;;;29.05;;
65533;SDS011;53640;55.838;37.184;2024-03-02T03:44:21;56.75;;;27.58;;
65533;SDS011;53640;55.838;37.184;2024-03-02T03:46:48;42.78;;;23.88;;
65533;SDS011;53640;55.838;37.184;2024-03-02T03:49:14;50.58;;;24.35;;
65533;SDS011;53640;55.838;37.184;2024-03-02T03:51:41;52.47;;;26.75;;
65533;SDS011;53640;55.838;37.184;2024-03-02T03:54:07;58.80;;;27.15;;
65533;SDS011;53640;55.838;37.184;2024-03-02T03:56:34;58.30;;;27.88;;
65533;SDS011;53640;55.838;37.184;2024-03-02T03:59:00;52.85;;;27.42;;
65533;SDS011;53640;55.838;37.184;2024-03-02T04:01:27;54.30;;;25.85;;
65533;SDS011;53640;55.838;37.184;2024-03-02T04:03:54;59.30;;;27.58;;
65533;SDS011;53640;55.838;37.184;2024-03-02T04:06:20;55.80;;;26.33;;
65533;SDS011;53640;55.838;37.184;2024-03-02T04:08:52;45.25;;;22.60;;
65533;SDS011;53640;55.838;37.184;2024-03-02T04:11:19;38.03;;;18.55;;
65533;SDS011;53640;55.838;37.184;2024-03-02T04:13:45;33.75;;;18.00;;
65533;SDS011;53640;55.838;37.184;2024-03-02T04:16:12;37.28;;;19.25;;
65533;SDS011;53640;55.838;37.184;2024-03-02T04:18:38;30.65;;;17.23;;
65533;SDS011;53640;55.838;37.184;2024-03-02T04:21:05;29.38;;;16.50;;
65533;SDS011;53640;55.838;37.184;2024-03-02T04:23:32;41.58;;;20.98;;
65533;SDS011;53640;55.838;37.184;2024-03-02T04:25:58;32.70;;;18.65;;
65533;SDS011;53640;55.838;37.184;2024-03-02T04:28:25;35.45;;;19.60;;
65533;SDS011;53640;55.838;37.184;2024-03-02T04:30:51;44.08;;;22.83;;
65533;SDS011;53640;55.838;37.184;2024-03-02T04:33:17;45.70;;;23.00;;
65533;SDS011;53640;55.838;37.184;2024-03-02T04:35:44;46.38;;;22.73;;
65533;SDS011;53640;55.838;37.184;2024-03-02T04:38:10;33.25;;;18.95;;
65533;SDS011;53640;55.838;37.184;2024-03-02T04:40:37;36.97;;;20.30;;
65533;SDS011;53640;55.838;37.184;2024-03-02T04:43:03;40.42;;;20.75;;
65533;SDS011;53640;55.838;37.184;2024-03-02T04:45:30;45.00;;;23.45;;
65533;SDS011;53640;55.838;37.184;2024-03-02T04:47:58;42.00;;;22.20;;
65533;SDS011;53640;55.838;37.184;2024-03-02T04:50:24;42.13;;;21.25;;
65533;SDS011;53640;55.838;37.184;2024-03-02T04:52:50;40.47;;;22.45;;
65533;SDS011;53640;55.838;37.184;2024-03-02T04:55:20;48.67;;;23.95;;
65533;SDS011;53640;55.838;37.184;2024-03-02T04:57:49;50.25;;;25.80;;
65533;SDS011;53640;55.838;37.184;2024-03-02T05:00:28;48.55;;;26.63;;
65533;SDS011;53640;55.838;37.184;2024-03-02T05:09:03;51.03;;;26.45;;
65533;SDS011;53640;55.838;37.184;2024-03-02T05:11:30;55.53;;;26.65;;
65533;SDS011;53640;55.838;37.184;2024-03-02T05:14:06;53.25;;;27.80;;
65533;SDS011;53640;55.838;37.184;2024-03-02T05:16:35;53.63;;;26.25;;
65533;SDS011;53640;55.838;37.184;2024-03-02T05:19:08;55.80;;;28.20;;
65533;SDS011;53640;55.838;37.184;2024-03-02T05:21:35;59.67;;;30.17;;
65533;SDS011;53640;55.838;37.184;2024-03-02T05:24:03;57.47;;;28.20;;
65533;SDS011;53640;55.838;37.184;2024-03-02T05:26:29;56.05;;;28.65;;
65533;SDS011;53640;55.838;37.184;2024-03-02T05:28:57;57.60;;;28.73;;
65533;SDS011;53640;55.838;37.184;2024-03-02T05:31:24;58.63;;;29.60;;
65533;SDS011;53640;55.838;37.184;2024-03-02T05:33:52;54.50;;;28.50;;
65533;SDS011;53640;55.838;37.184;2024-03-02T05:36:18;61.63;;;29.52;;
65533;SDS011;53640;55.838;37.184;2024-03-02T05:38:45;63.15;;;30.20;;
65533;SDS011;53640;55.838;37.184;2024-03-02T05:41:11;63.53;;;30.73;;
65533;SDS011;53640;55.838;37.184;2024-03-02T05:43:38;59.00;;;29.80;;
65533;SDS011;53640;55.838;37.184;2024-03-02T05:46:04;64.28;;;30.70;;
65533;SDS011;53640;55.838;37.184;2024-03-02T05:48:31;63.75;;;30.80;;
65533;SDS011;53640;55.838;37.184;2024-03-02T05:50:57;58.88;;;30.27;;
65533;SDS011;53640;55.838;37.184;2024-03-02T05:53:23;65.13;;;29.20;;
65533;SDS011;53640;55.838;37.184;2024-03-02T05:55:50;60.20;;;29.77;;
65533;SDS011;53640;55.838;37.184;2024-03-02T05:58:21;56.53;;;28.92;;
65533;SDS011;53640;55.838;37.184;2024-03-02T06:00:54;54.88;;;28.20;;
65533;SDS011;53640;55.838;37.184;2024-03-02T06:03:21;59.85;;;29.08;;
65533;SDS011;53640;55.838;37.184;2024-03-02T06:05:48;57.78;;;29.00;;
65533;SDS011;53640;55.838;37.184;2024-03-02T06:08:15;53.60;;;29.25;;
65533;SDS011;53640;55.838;37.184;2024-03-02T06:10:42;60.60;;;30.23;;
65533;SDS011;53640;55.838;37.184;2024-03-02T06:13:09;59.08;;;29.65;;
65533;SDS011;53640;55.838;37.184;2024-03-02T06:15:36;69.97;;;31.15;;
65533;SDS011;53640;55.838;37.184;2024-03-02T06:18:02;57.50;;;29.80;;
65533;SDS011;53640;55.838;37.184;2024-03-02T06:20:30;54.50;;;30.40;;
65533;SDS011;53640;55.838;37.184;2024-03-02T06:22:57;55.35;;;30.55;;
65533;SDS011;53640;55.838;37.184;2024-03-02T06:25:24;63.95;;;29.98;;
65533;SDS011;53640;55.838;37.184;2024-03-02T06:27:55;62.00;;;31.92;;
65533;SDS011;53640;55.838;37.184;2024-03-02T06:30:21;63.00;;;30.83;;
65533;SDS011;53640;55.838;37.184;2024-03-02T06:32:48;66.13;;;30.80;;
65533;SDS011;53640;55.838;37.184;2024-03-02T06:35:15;55.10;;;31.00;;
65533;SDS011;53640;55.838;37.184;2024-03-02T06:37:41;60.17;;;30.45;;
65533;SDS011;53640;55.838;37.184;2024-03-02T06:40:08;63.63;;;32.70;;
65533;SDS011;53640;55.838;37.184;2024-03-02T06:42:35;59.97;;;30.08;;
65533;SDS011;53640;55.838;37.184;2024-03-02T06:45:02;62.15;;;31.50;;
65533;SDS011;53640;55.838;37.184;2024-03-02T06:47:31;64.20;;;32.88;;
65533;SDS011;53640;55.838;37.184;2024-03-02T06:49:57;63.50;;;31.52;;
65533;SDS011;53640;55.838;37.184;2024-03-02T06:52:24;69.50;;;33.65;;
65533;SDS011;53640;55.838;37.184;2024-03-02T06:54:51;63.80;;;32.35;;
65533;SDS011;53640;55.838;37.184;2024-03-02T06:57:18;63.22;;;32.10;;
65533;SDS011;53640;55.838;37.184;2024-03-02T06:59:46;65.60;;;34.42;;
65533;SDS011;53640;55.838;37.184;2024-03-02T07:02:16;72.75;;;34.63;;
65533;SDS011;53640;55.838;37.184;2024-03-02T07:04:42;67.47;;;35.47;;
65533;SDS011;53640;55.838;37.184;2024-03-02T07:07:08;67.35;;;35.22;;
65533;SDS011;53640;55.838;37.184;2024-03-02T07:09:35;75.10;;;37.20;;
65533;SDS011;53640;55.838;37.184;2024-03-02T07:12:01;78.78;;;37.85;;
65533;SDS011;53640;55.838;37.184;2024-03-02T07:14:28;75.97;;;38.85;;
65533;SDS011;53640;55.838;37.184;2024-03-02T07:17:16;64.97;;;35.88;;
65533;SDS011;53640;55.838;37.184;2024-03-02T07:19:42;80.05;;;39.38;;
65533;SDS011;53640;55.838;37.184;2024-03-02T07:22:09;67.93;;;36.60;;
65533;SDS011;53640;55.838;37.184;2024-03-02T07:24:39;59.63;;;32.53;;
65533;SDS011;53640;55.838;37.184;2024-03-02T07:27:09;68.85;;;34.08;;
65533;SDS011;53640;55.838;37.184;2024-03-02T07:29:36;63.58;;;35.95;;
65533;SDS011;53640;55.838;37.184;2024-03-02T07:32:02;74.25;;;37.38;;
65533;SDS011;53640;55.838;37.184;2024-03-02T07:34:30;71.35;;;38.75;;
65533;SDS011;53640;55.838;37.184;2024-03-02T07:36:57;73.22;;;36.72;;
65533;SDS011;53640;55.838;37.184;2024-03-02T07:39:25;75.88;;;38.13;;
65533;SDS011;53640;55.838;37.184;2024-03-02T07:41:52;73.30;;;39.83;;
65533;SDS011;53640;55.838;37.184;2024-03-02T07:44:19;78.22;;;39.00;;
65533;SDS011;53640;55.838;37.184;2024-03-02T07:46:47;81.60;;;41.78;;
65533;SDS011;53640;55.838;37.184;2024-03-02T07:49:18;73.55;;;38.33;;
65533;SDS011;53640;55.838;37.184;2024-03-02T07:51:45;80.43;;;39.58;;
65533;SDS011;53640;55.838;37.184;2024-03-02T07:54:11;68.93;;;38.10;;
65533;SDS011;53640;55.838;37.184;2024-03-02T07:56:38;70.95;;;38.28;;
65533;SDS011;53640;55.838;37.184;2024-03-02T07:59:06;73.80;;;41.30;;
65533;SDS011;53640;55.838;37.184;2024-03-02T08:01:33;78.05;;;41.03;;
65533;SDS011;53640;55.838;37.184;2024-03-02T08:04:00;78.38;;;41.22;;
65533;SDS011;53640;55.838;37.184;2024-03-02T08:09:27;78.60;;;40.05;;
65533;SDS011;53640;55.838;37.184;2024-03-02T08:11:56;69.90;;;38.70;;
65533;SDS011;53640;55.838;37.184;2024-03-02T08:14:34;89.65;;;40.60;;
65533;SDS011;53640;55.838;37.184;2024-03-02T08:17:25;76.97;;;40.40;;
65533;SDS011;53640;55.838;37.184;2024-03-02T08:19:58;71.35;;;38.92;;
65533;SDS011;53640;55.838;37.184;2024-03-02T08:22:28;78.72;;;38.65;;
65533;SDS011;53640;55.838;37.184;2024-03-02T08:24:56;74.97;;;39.15;;
65533;SDS011;53640;55.838;37.184;2024-03-02T08:27:24;77.28;;;40.22;;
65533;SDS011;53640;55.838;37.184;2024-03-02T08:29:50;79.07;;;41.22;;
65533;SDS011;53640;55.838;37.184;2024-03-02T08:32:17;82.53;;;41.83;;
65533;SDS011;53640;55.838;37.184;2024-03-02T08:34:45;79.53;;;40.08;;
65533;SDS011;53640;55.838;37.184;2024-03-02T08:37:12;84.38;;;41.53;;
65533;SDS011;53640;55.838;37.184;2024-03-02T08:39:39;82.88;;;42.00;;
65533;SDS011;53640;55.838;37.184;2024-03-02T08:42:08;79.55;;;39.78;;
65533;SDS011;53640;55.838;37.184;2024-03-02T08:44:36;77.70;;;41.03;;
65533;SDS011;53640;55.838;37.184;2024-03-02T08:47:06;74.40;;;38.97;;
65533;SDS011;53640;55.838;37.184;2024-03-02T08:49:47;71.57;;;37.92;;
65533;SDS011;53640;55.838;37.184;2024-03-02T08:55:09;69.80;;;37.05;;
65533;SDS011;53640;55.838;37.184;2024-03-02T08:57:38;72.57;;;34.20;;
65533;SDS011;53640;55.838;37.184;2024-03-02T09:00:19;73.63;;;37.05;;
65533;SDS011;53640;55.838;37.184;2024-03-02T09:06:32;71.32;;;36.67;;
65533;SDS011;53640;55.838;37.184;2024-03-02T09:08:59;73.65;;;37.47;;
65533;SDS011;53640;55.838;37.184;2024-03-02T09:11:28;67.10;;;33.75;;
65533;SDS011;53640;55.838;37.184;2024-03-02T09:13:54;64.57;;;33.95;;
65533;SDS011;53640;55.838;37.184;2024-03-02T09:16:24;66.20;;;34.85;;
65533;SDS011;53640;55.838;37.184;2024-03-02T09:18:56;71.07;;;36.58;;
65533;SDS011;53640;55.838;37.184;2024-03-02T09:21:24;64.50;;;34.10;;
65533;SDS011;53640;55.838;37.184;2024-03-02T09:23:54;66.35;;;35.60;;
65533;SDS011;53640;55.838;37.184;2024-03-02T09:26:23;64.95;;;34.97;;
65533;SDS011;53640;55.838;37.184;2024-03-02T09:28:50;71.32;;;38.25;;
65533;SDS011;53640;55.838;37.184;2024-03-02T09:31:19;67.63;;;37.53;;
65533;SDS011;53640;55.838;37.184;2024-03-02T09:33:46;65.38;;;34.97;;
65533;SDS011;53640;55.838;37.184;2024-03-02T09:36:17;73.70;;;37.80;;
65533;SDS011;53640;55.838;37.184;2024-03-02T09:38:45;71.00;;;36.65;;
65533;SDS011;53640;55.838;37.184;2024-03-02T09:41:11;68.45;;;36.13;;
65533;SDS011;53640;55.838;37.184;2024-03-02T09:43:38;69.85;;;38.20;;
65533;SDS011;53640;55.838;37.184;2024-03-02T09:46:05;76.07;;;38.92;;
65533;SDS011;53640;55.838;37.184;2024-03-02T09:48:32;64.70;;;33.47;;
65533;SDS011;53640;55.838;37.184;2024-03-02T09:50:58;62.38;;;34.40;;
65533;SDS011;53640;55.838;37.184;2024-03-02T09:53:29;70.68;;;36.50;;
65533;SDS011;53640;55.838;37.184;2024-03-02T09:56:00;66.10;;;35.92;;
65533;SDS011;53640;55.838;37.184;2024-03-02T09:58:28;62.70;;;32.72;;
65533;SDS011;53640;55.838;37.184;2024-03-02T10:00:55;53.45;;;30.25;;
65533;SDS011;53640;55.838;37.184;2024-03-02T10:03:22;69.70;;;37.08;;
65533;SDS011;53640;55.838;37.184;2024-03-02T10:05:50;70.50;;;35.95;;
65533;SDS011;53640;55.838;37.184;2024-03-02T10:08:17;61.97;;;32.90;;
65533;SDS011;53640;55.838;37.184;2024-03-02T10:10:44;66.05;;;35.60;;
65533;SDS011;53640;55.838;37.184;2024-03-02T10:13:11;65.32;;;32.38;;
65533;SDS011;53640;55.838;37.184;2024-03-02T10:15:39;56.78;;;32.30;;
65533;SDS011;53640;55.838;37.184;2024-03-02T10:18:10;73.55;;;37.85;;
65533;SDS011;53640;55.838;37.184;2024-03-02T10:20:42;63.13;;;31.95;;
65533;SDS011;53640;55.838;37.184;2024-03-02T10:23:12;52.60;;;29.77;;
65533;SDS011;53640;55.838;37.184;2024-03-02T10:25:40;58.08;;;32.15;;
65533;SDS011;53640;55.838;37.184;2024-03-02T10:28:07;50.60;;;29.40;;
65533;SDS011;53640;55.838;37.184;2024-03-02T10:30:34;52.95;;;28.30;;
65533;SDS011;53640;55.838;37.184;2024-03-02T10:33:01;60.28;;;33.13;;
65533;SDS011;53640;55.838;37.184;2024-03-02T10:35:28;59.13;;;30.80;;
65533;SDS011;53640;55.838;37.184;2024-03-02T10:37:58;63.37;;;32.67;;
65533;SDS011;53640;55.838;37.184;2024-03-02T10:40:26;63.08;;;33.92;;
65533;SDS011;53640;55.838;37.184;2024-03-02T10:42:53;62.15;;;33.85;;
65533;SDS011;53640;55.838;37.184;2024-03-02T10:45:20;62.28;;;33.60;;
65533;SDS011;53640;55.838;37.184;2024-03-02T10:47:49;59.83;;;32.88;;
65533;SDS011;53640;55.838;37.184;2024-03-02T10:50:16;61.53;;;33.38;;
65533;SDS011;53640;55.838;37.184;2024-03-02T10:52:43;72.50;;;38.83;;
65533;SDS011;53640;55.838;37.184;2024-03-02T10:55:14;61.45;;;32.70;;
65533;SDS011;53640;55.838;37.184;2024-03-02T10:57:50;65.88;;;36.25;;
65533;SDS011;53640;55.838;37.184;2024-03-02T11:00:20;65.80;;;35.45;;
65533;SDS011;53640;55.838;37.184;2024-03-02T11:02:55;68.40;;;38.22;;
65533;SDS011;53640;55.838;37.184;2024-03-02T11:05:26;62.38;;;33.00;;
65533;SDS011;53640;55.838;37.184;2024-03-02T11:08:08;56.03;;;32.25;;
65533;SDS011;53640;55.838;37.184;2024-03-02T11:10:45;59.83;;;33.92;;
65533;SDS011;53640;55.838;37.184;2024-03-02T11:13:30;56.05;;;31.38;;
65533;SDS011;53640;55.838;37.184;2024-03-02T11:16:03;57.78;;;28.70;;
65533;SDS011;53640;55.838;37.184;2024-03-02T11:18:33;59.97;;;33.60;;
65533;SDS011;53640;55.838;37.184;2024-03-02T11:21:00;59.58;;;33.00;;
65533;SDS011;53640;55.838;37.184;2024-03-02T11:23:32;56.65;;;30.67;;
65533;SDS011;53640;55.838;37.184;2024-03-02T11:26:17;78.20;;;39.40;;
65533;SDS011;53640;55.838;37.184;2024-03-02T11:28:50;65.68;;;35.88;;
65533;SDS011;53640;55.838;37.184;2024-03-02T11:31:17;55.90;;;31.35;;
65533;SDS011;53640;55.838;37.184;2024-03-02T11:33:44;64.10;;;32.50;;
65533;SDS011;53640;55.838;37.184;2024-03-02T11:36:11;71.82;;;36.38;;
65533;SDS011;53640;55.838;37.184;2024-03-02T11:38:41;61.90;;;34.22;;
65533;SDS011;53640;55.838;37.184;2024-03-02T11:41:13;69.85;;;36.60;;
65533;SDS011;53640;55.838;37.184;2024-03-02T11:43:40;59.40;;;34.03;;
65533;SDS011;53640;55.838;37.184;2024-03-02T11:46:12;65.18;;;35.75;;
65533;SDS011;53640;55.838;37.184;2024-03-02T11:48:39;70.00;;;37.55;;
65533;SDS011;53640;55.838;37.184;2024-03-02T11:51:06;71.05;;;36.80;;
65533;SDS011;53640;55.838;37.184;2024-03-02T11:53:32;64.13;;;33.95;;
65533;SDS011;53640;55.838;37.184;2024-03-02T11:55:59;59.67;;;33.85;;
65533;SDS011;53640;55.838;37.184;2024-03-02T11:58:35;60.05;;;33.00;;
65533;SDS011;53640;55.838;37.184;2024-03-02T12:01:03;68.60;;;38.15;;
65533;SDS011;53640;55.838;37.184;2024-03-02T12:03:29;68.03;;;37.72;;
65533;SDS011;53640;55.838;37.184;2024-03-02T12:05:58;62.38;;;34.67;;
65533;SDS011;53640;55.838;37.184;2024-03-02T12:08:26;57.95;;;32.40;;
65533;SDS011;53640;55.838;37.184;2024-03-02T12:10:57;57.50;;;31.98;;
65533;SDS011;53640;55.838;37.184;2024-03-02T12:13:26;54.35;;;30.17;;
65533;SDS011;53640;55.838;37.184;2024-03-02T12:15:54;58.30;;;32.30;;
65533;SDS011;53640;55.838;37.184;2024-03-02T12:18:27;52.70;;;28.55;;
65533;SDS011;53640;55.838;37.184;2024-03-02T12:20:55;49.65;;;27.08;;
65533;SDS011;53640;55.838;37.184;2024-03-02T12:23:23;48.38;;;25.13;;
65533;SDS011;53640;55.838;37.184;2024-03-02T12:25:50;57.33;;;30.95;;
65533;SDS011;53640;55.838;37.184;2024-03-02T12:28:16;59.40;;;30.95;;
65533;SDS011;53640;55.838;37.184;2024-03-02T12:30:43;51.78;;;28.05;;
65533;SDS011;53640;55.838;37.184;2024-03-02T12:33:10;59.78;;;29.27;;
65533;SDS011;53640;55.838;37.184;2024-03-02T12:35:37;57.47;;;31.15;;
65533;SDS011;53640;55.838;37.184;2024-03-02T12:38:03;56.90;;;28.08;;
65533;SDS011;53640;55.838;37.184;2024-03-02T12:40:30;50.40;;;28.88;;
65533;SDS011;53640;55.838;37.184;2024-03-02T12:42:57;46.83;;;25.27;;
65533;SDS011;53640;55.838;37.184;2024-03-02T12:45:24;56.03;;;29.77;;
65533;SDS011;53640;55.838;37.184;2024-03-02T12:47:51;52.78;;;27.60;;
65533;SDS011;53640;55.838;37.184;2024-03-02T12:50:18;50.88;;;27.17;;
65533;SDS011;53640;55.838;37.184;2024-03-02T12:52:54;58.63;;;29.63;;
65533;SDS011;53640;55.838;37.184;2024-03-02T12:55:21;54.95;;;29.25;;
65533;SDS011;53640;55.838;37.184;2024-03-02T12:57:51;51.60;;;29.08;;
65533;SDS011;53640;55.838;37.184;2024-03-02T13:00:19;51.20;;;26.70;;
65533;SDS011;53640;55.838;37.184;2024-03-02T13:02:47;57.85;;;28.58;;
65533;SDS011;53640;55.838;37.184;2024-03-02T13:05:16;52.80;;;27.60;;
65533;SDS011;53640;55.838;37.184;2024-03-02T13:07:46;56.30;;;28.70;;
65533;SDS011;53640;55.838;37.184;2024-03-02T13:10:14;54.53;;;29.27;;
65533;SDS011;53640;55.838;37.184;2024-03-02T13:12:40;49.85;;;27.25;;
65533;SDS011;53640;55.838;37.184;2024-03-02T13:15:08;58.78;;;31.30;;
65533;SDS011;53640;55.838;37.184;2024-03-02T13:17:35;54.97;;;28.92;;
65533;SDS011;53640;55.838;37.184;2024-03-02T13:20:02;58.08;;;28.35;;
65533;SDS011;53640;55.838;37.184;2024-03-02T13:22:31;58.05;;;29.52;;
65533;SDS011;53640;55.838;37.184;2024-03-02T13:24:57;51.05;;;27.67;;
65533;SDS011;53640;55.838;37.184;2024-03-02T13:27:27;46.90;;;27.08;;
65533;SDS011;53640;55.838;37.184;2024-03-02T13:29:54;56.92;;;28.67;;
65533;SDS011;53640;55.838;37.184;2024-03-02T13:32:21;64.18;;;29.42;;
65533;SDS011;53640;55.838;37.184;2024-03-02T13:34:50;60.70;;;28.90;;
65533;SDS011;53640;55.838;37.184;2024-03-02T13:37:17;53.60;;;28.13;;
65533;SDS011;53640;55.838;37.184;2024-03-02T13:39:43;57.58;;;28.33;;
65533;SDS011;53640;55.838;37.184;2024-03-02T13:42:10;57.05;;;28.17;;
65533;SDS011;53640;55.838;37.184;2024-03-02T13:44:39;58.50;;;28.52;;
65533;SDS011;53640;55.838;37.184;2024-03-02T13:47:06;61.42;;;28.58;;
65533;SDS011;53640;55.838;37.184;2024-03-02T13:49:32;53.00;;;28.58;;
65533;SDS011;53640;55.838;37.184;2024-03-02T13:52:09;55.88;;;27.40;;
65533;SDS011;53640;55.838;37.184;2024-03-02T13:54:37;50.40;;;27.23;;
65533;SDS011;53640;55.838;37.184;2024-03-02T13:57:05;57.30;;;27.00;;
65533;SDS011;53640;55.838;37.184;2024-03-02T13:59:33;55.50;;;27.38;;
65533;SDS011;53640;55.838;37.184;2024-03-02T14:02:03;51.40;;;26.40;;
65533;SDS011;53640;55.838;37.184;2024-03-02T14:04:31;54.33;;;27.50;;
65533;SDS011;53640;55.838;37.184;2024-03-02T14:06:59;57.05;;;28.85;;
65533;SDS011;53640;55.838;37.184;2024-03-02T14:09:25;54.28;;;26.40;;
65533;SDS011;53640;55.838;37.184;2024-03-02T14:11:55;52.22;;;27.27;;
65533;SDS011;53640;55.838;37.184;2024-03-02T14:14:22;49.97;;;26.70;;
65533;SDS011;53640;55.838;37.184;2024-03-02T14:16:50;50.95;;;25.42;;
65533;SDS011;53640;55.838;37.184;2024-03-02T14:19:16;49.72;;;24.73;;
65533;SDS011;53640;55.838;37.184;2024-03-02T14:21:43;51.67;;;27.10;;
65533;SDS011;53640;55.838;37.184;2024-03-02T14:24:10;47.25;;;26.58;;
65533;SDS011;53640;55.838;37.184;2024-03-02T14:26:36;51.47;;;27.83;;
65533;SDS011;53640;55.838;37.184;2024-03-02T14:29:03;51.15;;;26.48;;
65533;SDS011;53640;55.838;37.184;2024-03-02T14:31:30;48.22;;;24.52;;
65533;SDS011;53640;55.838;37.184;2024-03-02T14:34:06;42.58;;;23.63;;